Time;durP1;ratioP1;P1;durP2;ratioP2;P2;SDS_P1;SDS_P2;PMS_P1;PMS_P2;Temp;Humidity;BMP_temperature;BMP_pressure;BME280_temperature;BME280_humidity;BME280_pressure;Samples;Min_cycle;Max_cycle;Signal;HPM_P1;HPM_P2
2023/05/13 00:01:48;;;;;;;3.97;3.67;;;13.50;99.20;;;;;;947552;149;27375;-75
2023/05/13 00:04:14;;;;;;;4.47;3.50;;;13.50;99.20;;;;;;946902;148;27932;-75
2023/05/13 00:06:41;;;;;;;4.53;3.40;;;13.50;99.10;;;;;;947295;148;27312;-75
2023/05/13 00:09:07;;;;;;;3.80;3.50;;;13.60;99.10;;;;;;947316;148;27372;-74
2023/05/13 00:11:34;;;;;;;3.80;3.50;;;13.60;99.10;;;;;;947459;148;27348;-74
2023/05/13 00:14:01;;;;;;;4.47;3.87;;;13.60;99.00;;;;;;947382;148;27741;-75
2023/05/13 00:16:28;;;;;;;3.70;3.40;;;13.60;98.90;;;;;;947594;149;27304;-74
2023/05/13 00:18:54;;;;;;;4.30;3.90;;;13.60;98.90;;;;;;946632;148;27323;-75
2023/05/13 00:21:21;;;;;;;4.03;3.73;;;13.60;98.90;;;;;;948001;148;27461;-75
2023/05/13 00:23:47;;;;;;;4.67;4.10;;;13.70;99.00;;;;;;947621;148;27415;-75
2023/05/13 00:26:13;;;;;;;4.20;3.73;;;13.70;99.20;;;;;;930745;151;27482;-75
2023/05/13 00:28:40;;;;;;;4.30;3.83;;;13.70;99.10;;;;;;947340;148;27330;-75
2023/05/13 00:31:08;;;;;;;3.90;3.60;;;13.70;99.20;;;;;;925955;151;27366;-74
2023/05/13 00:33:33;;;;;;;4.20;3.90;;;13.70;98.90;;;;;;930968;151;27394;-75
2023/05/13 00:36:00;;;;;;;4.43;4.13;;;13.70;99.40;;;;;;932188;149;27395;-74
2023/05/13 00:38:26;;;;;;;3.90;3.50;;;13.70;99.40;;;;;;934151;149;27318;-75
2023/05/13 00:40:53;;;;;;;5.00;4.07;;;13.70;99.40;;;;;;934756;149;27474;-75
2023/05/13 00:43:20;;;;;;;4.03;3.73;;;13.80;99.90;;;;;;919482;152;27359;-75
2023/05/13 00:45:46;;;;;;;4.83;4.33;;;13.80;99.70;;;;;;912447;153;27471;-75
2023/05/13 00:48:13;;;;;;;4.40;4.00;;;13.80;99.70;;;;;;930728;151;27494;-74
2023/05/13 00:50:43;;;;;;;4.13;3.77;;;13.90;99.80;;;;;;934108;149;27318;-74
2023/05/13 00:53:06;;;;;;;4.97;4.00;;;13.90;99.90;;;;;;935213;149;27316;-75
2023/05/13 00:55:32;;;;;;;3.80;3.50;;;13.90;99.80;;;;;;934145;149;27457;-75
2023/05/13 00:57:59;;;;;;;4.60;3.80;;;14.00;99.70;;;;;;935054;149;27393;-75
2023/05/13 01:00:26;;;;;;;6.25;3.70;;;14.00;99.70;;;;;;934707;149;27423;-75
2023/05/13 01:03:11;;;;;;;4.07;3.73;;;14.00;99.70;;;;;;934775;149;27470;-74
2023/05/13 01:05:43;;;;;;;4.53;4.13;;;14.00;99.70;;;;;;933708;149;27285;-75
2023/05/13 01:08:37;;;;;;;4.00;3.60;;;14.00;99.60;;;;;;931488;149;27449;-75
2023/05/13 01:11:03;;;;;;;3.97;3.67;;;14.00;99.60;;;;;;926828;152;27837;-75
2023/05/13 01:13:34;;;;;;;4.27;3.87;;;14.00;99.40;;;;;;926443;152;27335;-75
2023/05/13 01:16:06;;;;;;;3.98;3.62;;;14.00;99.30;;;;;;927404;152;27357;-75
2023/05/13 01:18:41;;;;;;;3.73;3.17;;;14.10;99.50;;;;;;913685;152;27381;-75
2023/05/13 01:21:07;;;;;;;3.67;3.30;;;14.10;99.50;;;;;;934585;149;27450;-75
2023/05/13 01:23:34;;;;;;;3.30;3.07;;;14.10;99.50;;;;;;934565;149;27399;-75
2023/05/13 01:26:00;;;;;;;3.37;3.07;;;14.10;99.40;;;;;;922408;152;27320;-75
2023/05/13 01:28:27;;;;;;;3.60;3.40;;;14.10;99.60;;;;;;919106;152;27395;-75
2023/05/13 01:30:55;;;;;;;3.73;3.20;;;14.20;99.50;;;;;;918245;152;27412;-75
2023/05/13 01:33:20;;;;;;;3.57;3.27;;;14.20;99.50;;;;;;932487;149;27414;-75
2023/05/13 01:35:47;;;;;;;3.27;2.97;;;14.20;99.40;;;;;;933594;149;27401;-75
2023/05/13 01:38:13;;;;;;;3.67;3.37;;;14.20;99.20;;;;;;934107;149;27363;-75
2023/05/13 01:40:40;;;;;;;3.53;3.23;;;14.20;99.10;;;;;;934454;149;27371;-75
2023/05/13 01:43:06;;;;;;;3.95;3.58;;;14.20;99.00;;;;;;933966;149;27347;-75
2023/05/13 01:45:33;;;;;;;3.55;3.25;;;14.20;99.00;;;;;;934534;149;27408;-75
2023/05/13 01:48:00;;;;;;;3.55;3.27;;;14.20;98.90;;;;;;933439;149;27445;-75
2023/05/13 01:50:26;;;;;;;3.00;2.80;;;14.20;99.00;;;;;;934063;149;27372;-75
2023/05/13 01:52:53;;;;;;;3.43;3.13;;;14.20;98.90;;;;;;933831;149;27976;-75
2023/05/13 01:55:19;;;;;;;3.55;3.35;;;14.20;98.80;;;;;;934334;149;27312;-75
2023/05/13 01:57:46;;;;;;;4.42;2.83;;;14.20;98.60;;;;;;933337;149;27417;-75
2023/05/13 02:00:13;;;;;;;3.70;2.87;;;14.20;98.80;;;;;;933897;149;27452;-75
2023/05/13 02:02:39;;;;;;;3.10;2.80;;;14.10;98.20;;;;;;934210;149;27364;-75
2023/05/13 02:05:06;;;;;;;3.53;3.23;;;14.10;98.10;;;;;;933104;149;27441;-75
2023/05/13 02:07:33;;;;;;;3.83;2.93;;;14.00;98.00;;;;;;934062;149;27350;-75
2023/05/13 02:09:59;;;;;;;3.67;3.37;;;14.00;97.90;;;;;;934070;149;27373;-75
2023/05/13 02:12:26;;;;;;;3.37;3.07;;;13.90;97.90;;;;;;933335;149;27372;-76
2023/05/13 02:14:55;;;;;;;3.50;3.20;;;13.80;97.90;;;;;;933539;149;27437;-75
2023/05/13 02:17:22;;;;;;;3.47;3.27;;;13.70;98.00;;;;;;934151;149;27292;-75
2023/05/13 02:19:48;;;;;;;4.37;3.17;;;13.70;98.20;;;;;;933742;149;27413;-75
2023/05/13 02:22:15;;;;;;;5.00;3.50;;;13.60;98.40;;;;;;934036;149;27352;-75
2023/05/13 02:24:41;;;;;;;3.77;3.47;;;13.50;98.70;;;;;;933302;149;27368;-75
2023/05/13 02:27:11;;;;;;;4.60;3.63;;;13.50;99.00;;;;;;933552;149;27328;-75
2023/05/13 02:29:35;;;;;;;4.33;3.70;;;13.50;99.40;;;;;;933226;149;27831;-75
2023/05/13 02:32:01;;;;;;;4.60;3.70;;;13.40;99.90;;;;;;933302;149;27332;-75
2023/05/13 02:34:28;;;;;;;4.20;3.23;;;13.40;99.80;;;;;;934212;149;27360;-75
2023/05/13 02:36:54;;;;;;;4.97;3.70;;;13.40;99.90;;;;;;934591;149;27296;-76
2023/05/13 02:39:21;;;;;;;4.83;3.30;;;13.40;99.90;;;;;;919146;152;27359;-75
2023/05/13 02:41:47;;;;;;;3.93;3.63;;;13.30;99.90;;;;;;922412;152;27428;-75
2023/05/13 02:44:14;;;;;;;3.80;3.50;;;13.30;99.90;;;;;;911874;153;27431;-75
2023/05/13 02:46:43;;;;;;;4.30;3.93;;;13.30;99.90;;;;;;935215;150;27354;-75
2023/05/13 02:49:07;;;;;;;3.70;3.50;;;13.30;99.80;;;;;;934670;149;27370;-75
2023/05/13 02:51:34;;;;;;;3.77;3.40;;;13.20;99.90;;;;;;935038;149;27424;-75
2023/05/13 02:54:00;;;;;;;4.07;3.43;;;13.20;99.90;;;;;;918077;152;27391;-75
2023/05/13 02:56:27;;;;;;;3.57;3.27;;;13.10;99.90;;;;;;912651;153;27423;-75
2023/05/13 02:58:54;;;;;;;3.47;3.27;;;13.10;99.90;;;;;;911325;153;27328;-76
2023/05/13 03:01:20;;;;;;;3.83;3.27;;;13.10;99.90;;;;;;913024;153;27433;-77
2023/05/13 03:03:47;;;;;;;4.57;4.03;;;13.00;99.90;;;;;;927462;152;27443;-78
2023/05/13 03:06:13;;;;;;;3.50;3.20;;;13.00;99.90;;;;;;927358;152;27373;-78
2023/05/13 03:08:40;;;;;;;5.00;3.37;;;13.00;99.90;;;;;;926612;152;27362;-78
2023/05/13 03:11:07;;;;;;;4.60;3.93;;;13.00;99.90;;;;;;912033;153;27368;-78
2023/05/13 03:13:33;;;;;;;3.63;3.33;;;13.10;99.90;;;;;;934613;150;27379;-78
2023/05/13 03:16:00;;;;;;;3.70;3.40;;;13.10;99.90;;;;;;935250;149;27373;-78
2023/05/13 03:18:30;;;;;;;4.60;3.40;;;13.10;99.90;;;;;;918173;152;27480;-77
2023/05/13 03:20:53;;;;;;;3.77;3.47;;;13.10;99.90;;;;;;933684;149;27334;-77
2023/05/13 03:23:20;;;;;;;8.07;4.03;;;13.20;99.90;;;;;;934059;150;27342;-78
2023/05/13 03:25:46;;;;;;;3.87;3.57;;;13.20;99.90;;;;;;918831;152;27466;-78
2023/05/13 03:28:13;;;;;;;3.50;3.30;;;13.20;99.90;;;;;;934933;149;27470;-78
2023/05/13 03:30:39;;;;;;;3.20;3.00;;;13.30;99.90;;;;;;935171;149;27338;-78
2023/05/13 03:33:06;;;;;;;3.90;3.50;;;13.30;99.90;;;;;;911549;152;27294;-78
2023/05/13 03:35:32;;;;;;;5.03;3.63;;;13.30;99.90;;;;;;918667;152;27331;-78
2023/05/13 03:37:59;;;;;;;3.50;3.20;;;13.30;99.90;;;;;;933964;151;27431;-78
2023/05/13 03:40:26;;;;;;;3.40;3.17;;;13.30;99.90;;;;;;943172;149;27390;-78
2023/05/13 03:42:52;;;;;;;3.83;3.53;;;13.30;99.90;;;;;;943699;149;27281;-78
2023/05/13 03:45:19;;;;;;;4.37;3.83;;;13.30;99.90;;;;;;944813;149;27433;-78
2023/05/13 03:47:45;;;;;;;3.43;3.17;;;13.40;99.90;;;;;;952386;148;27351;-78
2023/05/13 03:50:12;;;;;;;3.63;3.33;;;13.40;99.90;;;;;;928941;150;27421;-78
2023/05/13 03:52:39;;;;;;;3.63;3.33;;;13.40;99.90;;;;;;934520;150;27350;-78
2023/05/13 03:55:05;;;;;;;3.70;3.40;;;13.40;99.90;;;;;;935756;150;27436;-78
2023/05/13 03:57:32;;;;;;;4.40;3.40;;;13.40;99.90;;;;;;951631;148;27294;-78
2023/05/13 03:59:58;;;;;;;4.27;3.97;;;13.40;99.90;;;;;;931893;151;27486;-78
2023/05/13 04:02:25;;;;;;;5.30;3.47;;;13.50;99.90;;;;;;948623;151;27306;-78
2023/05/13 04:04:51;;;;;;;3.67;3.37;;;13.40;99.90;;;;;;948732;151;27423;-78
2023/05/13 04:07:18;;;;;;;3.70;3.40;;;13.50;99.90;;;;;;949458;151;27401;-78
2023/05/13 04:09:45;;;;;;;4.07;3.60;;;13.50;99.90;;;;;;949703;148;27389;-78
2023/05/13 04:12:11;;;;;;;3.93;3.60;;;13.60;99.90;;;;;;950013;151;27875;-78
2023/05/13 04:14:38;;;;;;;3.97;3.67;;;13.60;99.90;;;;;;948100;148;27376;-78
2023/05/13 04:17:04;;;;;;;3.23;3.03;;;13.60;99.90;;;;;;949013;151;27294;-77
2023/05/13 04:19:31;;;;;;;3.63;3.33;;;13.70;99.90;;;;;;949311;151;27437;-78
2023/05/13 04:21:58;;;;;;;3.43;3.20;;;13.80;99.90;;;;;;932531;151;27442;-78
2023/05/13 04:24:24;;;;;;;3.77;3.47;;;13.90;99.90;;;;;;949431;148;27319;-78
2023/05/13 04:26:51;;;;;;;4.47;3.20;;;13.90;99.90;;;;;;949162;151;27448;-78
2023/05/13 04:29:17;;;;;;;3.47;3.17;;;14.00;99.90;;;;;;948975;151;27303;-78
2023/05/13 04:31:44;;;;;;;3.52;3.22;;;14.10;99.90;;;;;;949600;151;27381;-78
2023/05/13 04:34:10;;;;;;;3.50;3.30;;;14.10;99.90;;;;;;949226;151;27347;-78
2023/05/13 04:36:37;;;;;;;4.65;3.55;;;14.20;99.90;;;;;;929480;151;27477;-78
2023/05/13 04:39:04;;;;;;;3.67;3.37;;;14.30;99.90;;;;;;935061;149;27314;-78
2023/05/13 04:41:30;;;;;;;3.15;2.95;;;14.40;99.90;;;;;;918788;152;27448;-78
2023/05/13 04:43:57;;;;;;;3.77;3.40;;;14.50;99.90;;;;;;934462;150;27376;-78
2023/05/13 04:46:24;;;;;;;3.77;3.47;;;14.60;99.90;;;;;;934990;149;27264;-78
2023/05/13 04:48:50;;;;;;;3.70;3.40;;;14.70;99.90;;;;;;934551;150;27350;-78
2023/05/13 04:51:17;;;;;;;3.42;3.12;;;14.90;99.90;;;;;;925319;152;27426;-78
2023/05/13 04:53:43;;;;;;;3.60;3.30;;;15.00;99.90;;;;;;918692;152;27410;-78
2023/05/13 04:56:10;;;;;;;3.85;3.08;;;15.10;99.90;;;;;;911941;153;27272;-78
2023/05/13 04:58:36;;;;;;;2.80;2.60;;;15.30;99.90;;;;;;934787;149;27341;-78
2023/05/13 05:01:03;;;;;;;3.35;3.05;;;15.40;99.90;;;;;;918512;152;27434;-78
2023/05/13 05:03:30;;;;;;;3.08;2.65;;;15.70;99.90;;;;;;917633;151;27412;-78
2023/05/13 05:05:56;;;;;;;3.40;3.10;;;15.90;99.90;;;;;;912950;153;27693;-78
2023/05/13 05:08:23;;;;;;;3.12;2.92;;;16.10;99.90;;;;;;918725;153;27368;-78
2023/05/13 05:10:49;;;;;;;3.20;3.00;;;16.30;99.90;;;;;;915725;153;27381;-78
2023/05/13 05:13:16;;;;;;;3.00;2.80;;;16.50;99.70;;;;;;934296;149;27294;-78
2023/05/13 05:15:43;;;;;;;2.98;2.55;;;16.60;98.70;;;;;;934920;149;27359;-78
2023/05/13 05:18:09;;;;;;;2.90;2.70;;;16.70;98.00;;;;;;932787;149;27349;-78
2023/05/13 05:20:36;;;;;;;3.17;2.87;;;16.70;97.50;;;;;;934482;150;27302;-78
2023/05/13 05:23:02;;;;;;;3.33;3.12;;;16.80;97.20;;;;;;934419;149;27264;-78
2023/05/13 05:25:29;;;;;;;3.80;3.00;;;16.80;97.00;;;;;;934352;150;27425;-78
2023/05/13 05:27:56;;;;;;;3.52;3.08;;;16.90;96.90;;;;;;934976;149;27366;-78
2023/05/13 05:30:22;;;;;;;3.92;2.45;;;16.90;96.70;;;;;;935323;149;27456;-78
2023/05/13 05:32:49;;;;;;;2.75;2.55;;;16.90;96.80;;;;;;923370;152;27307;-77
2023/05/13 05:35:18;;;;;;;2.35;2.25;;;17.00;96.80;;;;;;912550;153;27373;-78
2023/05/13 05:37:42;;;;;;;3.20;2.80;;;17.00;96.80;;;;;;934310;150;27471;-78
2023/05/13 05:40:08;;;;;;;4.70;2.72;;;17.20;96.80;;;;;;918699;152;27468;-78
2023/05/13 05:42:35;;;;;;;2.58;2.37;;;17.30;97.40;;;;;;923379;152;27348;-78
2023/05/13 05:45:02;;;;;;;2.80;2.50;;;17.50;98.30;;;;;;912421;152;27361;-78
2023/05/13 05:47:28;;;;;;;2.90;2.70;;;17.80;99.10;;;;;;917900;152;27399;-78
2023/05/13 05:49:55;;;;;;;3.02;2.40;;;18.10;99.10;;;;;;935015;149;27318;-78
2023/05/13 05:52:21;;;;;;;2.40;2.20;;;18.50;99.30;;;;;;934828;149;27264;-78
2023/05/13 05:54:48;;;;;;;2.80;2.15;;;19.00;99.20;;;;;;934999;150;27740;-78
2023/05/13 05:57:15;;;;;;;2.25;2.05;;;19.50;99.70;;;;;;918178;152;27374;-78
2023/05/13 05:59:41;;;;;;;2.80;2.60;;;20.10;98.80;;;;;;912016;152;27416;-78
2023/05/13 06:02:08;;;;;;;2.92;2.15;;;20.70;96.40;;;;;;934566;150;27264;-78
2023/05/13 06:04:34;;;;;;;2.30;2.20;;;21.20;93.10;;;;;;913346;153;27360;-78
2023/05/13 06:07:01;;;;;;;2.02;1.85;;;21.50;90.50;;;;;;918602;152;27321;-78
2023/05/13 06:09:28;;;;;;;1.75;1.65;;;21.90;88.40;;;;;;934753;149;27402;-78
2023/05/13 06:11:54;;;;;;;2.08;1.87;;;22.10;85.80;;;;;;934941;149;27350;-77
2023/05/13 06:14:21;;;;;;;2.72;2.00;;;22.20;83.10;;;;;;933673;149;27338;-77
2023/05/13 06:16:47;;;;;;;1.67;1.57;;;22.40;80.80;;;;;;934318;149;27356;-78
2023/05/13 06:19:14;;;;;;;1.95;1.85;;;22.40;78.90;;;;;;918235;152;27406;-78
2023/05/13 06:21:42;;;;;;;2.22;2.02;;;22.40;77.50;;;;;;912319;153;27410;-78
2023/05/13 06:24:07;;;;;;;2.00;1.90;;;22.40;76.30;;;;;;912113;153;27325;-78
2023/05/13 06:26:34;;;;;;;2.08;1.90;;;22.40;75.30;;;;;;911483;153;27339;-78
2023/05/13 06:29:00;;;;;;;1.87;1.70;;;22.30;74.60;;;;;;934560;150;27731;-78
2023/05/13 06:31:27;;;;;;;2.02;1.82;;;22.30;74.50;;;;;;935165;149;27375;-78
2023/05/13 06:33:53;;;;;;;1.85;1.75;;;22.20;74.50;;;;;;933597;150;27365;-78
2023/05/13 06:36:20;;;;;;;1.80;1.70;;;22.20;74.60;;;;;;918294;152;27313;-78
2023/05/13 06:38:47;;;;;;;2.17;1.98;;;22.20;74.90;;;;;;919045;152;27376;-78
2023/05/13 06:41:14;;;;;;;1.90;1.77;;;22.20;74.90;;;;;;928265;152;27486;-78
2023/05/13 06:43:40;;;;;;;2.20;2.10;;;22.30;74.80;;;;;;927396;152;27405;-78
2023/05/13 06:46:06;;;;;;;2.22;2.10;;;22.30;74.40;;;;;;931418;151;27323;-78
2023/05/13 06:48:33;;;;;;;2.25;1.70;;;22.40;74.40;;;;;;928035;151;27343;-78
2023/05/13 06:51:00;;;;;;;2.10;1.92;;;22.40;74.40;;;;;;927925;152;27428;-78
2023/05/13 06:53:27;;;;;;;1.72;1.62;;;22.50;74.90;;;;;;945877;148;27303;-79
2023/05/13 06:55:54;;;;;;;2.83;2.10;;;22.60;73.90;;;;;;945872;150;27360;-79
2023/05/13 06:58:20;;;;;;;2.27;1.80;;;22.70;73.80;;;;;;946540;150;27455;-79
2023/05/13 07:00:47;;;;;;;1.82;1.72;;;22.80;73.90;;;;;;945542;151;27306;-79
2023/05/13 07:03:13;;;;;;;2.22;1.92;;;23.10;74.20;;;;;;929543;151;27408;-79
2023/05/13 07:05:40;;;;;;;2.45;1.32;;;23.30;74.10;;;;;;930034;151;27844;-79
2023/05/13 07:08:07;;;;;;;2.98;1.90;;;23.60;74.30;;;;;;930384;151;27382;-79
2023/05/13 07:10:33;;;;;;;1.80;1.70;;;24.00;74.00;;;;;;930162;151;27390;-79
2023/05/13 07:13:03;;;;;;;1.95;1.77;;;24.40;73.90;;;;;;927663;152;27941;-79
2023/05/13 07:15:29;;;;;;;1.70;1.60;;;24.80;73.30;;;;;;930409;151;27488;-80
2023/05/13 07:17:56;;;;;;;1.90;1.80;;;25.30;73.00;;;;;;935537;151;27509;-79
2023/05/13 07:20:23;;;;;;;2.22;1.47;;;25.90;72.50;;;;;;945357;149;27361;-79
2023/05/13 07:22:49;;;;;;;2.08;1.52;;;26.40;71.70;;;;;;946217;148;27329;-79
2023/05/13 07:25:16;;;;;;;2.20;1.40;;;27.10;71.80;;;;;;930572;151;27871;-79
2023/05/13 07:27:42;;;;;;;1.62;1.52;;;27.80;71.50;;;;;;927241;152;27397;-79
2023/05/13 07:30:09;;;;;;;1.70;1.60;;;28.60;70.00;;;;;;927720;152;27398;-79
2023/05/13 07:32:35;;;;;;;1.42;1.32;;;29.30;67.10;;;;;;930382;151;27345;-79
2023/05/13 07:35:02;;;;;;;1.90;1.80;;;29.90;64.20;;;;;;927216;152;27416;-79
2023/05/13 07:37:29;;;;;;;1.50;1.40;;;30.40;61.40;;;;;;946040;151;27363;-80
2023/05/13 07:39:55;;;;;;;2.10;1.52;;;30.70;59.50;;;;;;942961;151;27732;-79
2023/05/13 07:42:22;;;;;;;1.45;1.35;;;30.90;58.10;;;;;;927331;152;27372;-80
2023/05/13 07:44:48;;;;;;;1.40;1.30;;;31.00;57.40;;;;;;927230;150;27757;-79
2023/05/13 07:47:15;;;;;;;1.60;1.50;;;31.10;56.60;;;;;;927024;152;27374;-80
2023/05/13 07:49:42;;;;;;;1.40;1.30;;;31.20;56.60;;;;;;927355;152;27380;-80
2023/05/13 07:52:08;;;;;;;1.40;1.30;;;31.40;56.40;;;;;;927398;152;27504;-80
2023/05/13 07:54:35;;;;;;;1.15;1.12;;;31.80;56.90;;;;;;926514;152;26377;-80
2023/05/13 07:57:02;;;;;;;1.22;1.12;;;32.30;57.00;;;;;;927560;152;27335;-80
2023/05/13 07:59:28;;;;;;;1.45;1.40;;;32.70;56.10;;;;;;927250;152;26314;-80
2023/05/13 08:01:55;;;;;;;1.57;1.30;;;33.20;55.30;;;;;;927048;152;26793;-80
2023/05/13 08:04:21;;;;;;;1.57;1.47;;;33.70;54.60;;;;;;926434;152;26259;-80
2023/05/13 08:06:48;;;;;;;1.30;1.20;;;34.20;54.40;;;;;;926953;151;26268;-80
2023/05/13 08:09:14;;;;;;;2.77;1.30;;;34.80;53.60;;;;;;926456;151;26316;-80
2023/05/13 08:11:41;;;;;;;1.40;1.30;;;35.30;52.80;;;;;;927100;152;26270;-80
2023/05/13 08:14:07;;;;;;;1.10;1.10;;;35.80;52.20;;;;;;926579;152;27687;-81
2023/05/13 08:16:35;;;;;;;1.17;1.07;;;36.40;51.90;;;;;;927234;152;26271;-81
2023/05/13 08:19:01;;;;;;;1.50;1.40;;;37.00;51.20;;;;;;926780;151;26244;-81
2023/05/13 08:21:27;;;;;;;1.07;1.07;;;37.70;50.20;;;;;;927087;152;26261;-81
2023/05/13 08:23:54;;;;;;;1.22;1.10;;;38.20;49.20;;;;;;926691;151;26357;-81
2023/05/13 08:26:21;;;;;;;2.35;1.20;;;38.70;47.30;;;;;;927663;151;26229;-81
2023/05/13 08:28:47;;;;;;;1.42;1.32;;;39.20;46.60;;;;;;927550;151;26332;-81
2023/05/13 08:31:14;;;;;;;1.25;1.15;;;39.50;45.90;;;;;;927898;152;26258;-81
2023/05/13 08:33:41;;;;;;;1.15;1.05;;;39.90;44.60;;;;;;927264;151;26306;-82
2023/05/13 08:36:07;;;;;;;1.20;1.05;;;40.20;43.70;;;;;;927126;152;26422;-81
2023/05/13 08:38:33;;;;;;;1.30;1.20;;;40.50;43.40;;;;;;927452;152;26199;-81
2023/05/13 08:41:00;;;;;;;1.25;1.10;;;40.70;42.90;;;;;;927748;152;26311;-81
2023/05/13 08:43:27;;;;;;;2.30;1.22;;;41.00;41.80;;;;;;926999;152;26263;-81
2023/05/13 08:45:53;;;;;;;1.52;0.90;;;41.20;41.00;;;;;;927800;152;26291;-81
2023/05/13 08:48:20;;;;;;;1.55;1.15;;;41.40;40.40;;;;;;927072;152;26196;-81
2023/05/13 08:50:46;;;;;;;1.30;1.30;;;41.60;40.10;;;;;;927683;152;26366;-81
2023/05/13 08:53:13;;;;;;;1.30;1.20;;;41.80;40.00;;;;;;927488;152;26254;-79
2023/05/13 08:55:40;;;;;;;0.93;0.93;;;42.10;39.70;;;;;;927736;151;26391;-79
2023/05/13 08:58:06;;;;;;;1.20;1.20;;;42.40;38.90;;;;;;927217;151;26248;-77
2023/05/13 09:00:33;;;;;;;1.17;1.07;;;42.70;37.90;;;;;;927548;152;26250;-76
2023/05/13 09:02:59;;;;;;;1.32;1.22;;;42.80;37.20;;;;;;927110;152;26257;-76
2023/05/13 09:05:26;;;;;;;1.30;1.17;;;42.90;36.10;;;;;;926336;152;26282;-76
2023/05/13 09:07:53;;;;;;;1.30;1.20;;;42.90;35.70;;;;;;927322;151;26324;-76
2023/05/13 09:10:19;;;;;;;0.80;0.80;;;42.90;35.40;;;;;;927221;152;26287;-76
2023/05/13 09:12:52;;;;;;;1.30;1.20;;;42.70;34.90;;;;;;927453;152;26182;-76
2023/05/13 09:15:18;;;;;;;1.07;0.98;;;42.70;34.80;;;;;;927118;152;26286;-76
2023/05/13 09:17:45;;;;;;;1.10;1.10;;;42.50;34.50;;;;;;927444;152;26296;-76
2023/05/13 09:20:12;;;;;;;2.47;1.20;;;42.40;34.30;;;;;;925681;151;26272;-76
2023/05/13 09:22:50;;;;;;;1.40;1.30;;;42.20;33.90;;;;;;927133;152;26337;-76
2023/05/13 09:25:17;;;;;;;1.65;1.00;;;42.00;33.30;;;;;;926933;151;27682;-76
2023/05/13 09:27:43;;;;;;;2.22;0.95;;;41.60;33.00;;;;;;926456;152;26378;-76
2023/05/13 09:30:10;;;;;;;1.60;1.17;;;41.20;33.00;;;;;;927458;152;26395;-76
2023/05/13 09:32:36;;;;;;;1.00;1.00;;;40.70;32.80;;;;;;926832;152;26259;-76
2023/05/13 09:35:10;;;;;;;1.87;1.22;;;40.10;32.40;;;;;;926853;152;26244;-76
2023/05/13 09:37:36;;;;;;;0.95;0.95;;;39.50;32.10;;;;;;927092;152;26265;-76
2023/05/13 09:40:02;;;;;;;1.60;1.50;;;38.80;32.30;;;;;;928136;152;26292;-76
2023/05/13 09:42:31;;;;;;;2.15;1.10;;;38.10;33.20;;;;;;934219;153;26236;-76
2023/05/13 09:44:55;;;;;;;1.12;1.12;;;37.50;33.30;;;;;;934253;150;26251;-76
2023/05/13 09:47:22;;;;;;;1.50;1.40;;;37.10;33.60;;;;;;934774;153;27973;-76
2023/05/13 09:49:48;;;;;;;1.35;1.25;;;36.60;33.50;;;;;;935223;150;27379;-76
2023/05/13 09:52:15;;;;;;;2.08;1.37;;;36.10;33.30;;;;;;933223;153;26685;-76
2023/05/13 09:54:42;;;;;;;2.00;1.60;;;35.50;33.10;;;;;;934370;152;27443;-76
2023/05/13 09:57:08;;;;;;;1.47;1.37;;;34.90;33.30;;;;;;934650;150;27509;-76
2023/05/13 09:59:35;;;;;;;1.60;1.50;;;34.20;33.30;;;;;;933916;150;27368;-76
2023/05/13 10:02:05;;;;;;;1.75;1.62;;;33.60;33.60;;;;;;934183;153;27459;-75
2023/05/13 10:04:31;;;;;;;1.50;1.40;;;33.00;33.90;;;;;;934651;152;26254;-76
2023/05/13 10:06:58;;;;;;;1.80;1.70;;;32.40;34.30;;;;;;934958;153;27454;-75
2023/05/13 10:09:25;;;;;;;1.70;1.60;;;31.90;34.10;;;;;;934266;151;27383;-75
2023/05/13 10:11:51;;;;;;;1.90;1.80;;;31.40;35.20;;;;;;933928;153;27402;-75
2023/05/13 10:14:17;;;;;;;2.50;1.80;;;31.00;35.50;;;;;;934367;150;27315;-75
2023/05/13 10:16:46;;;;;;;2.08;1.70;;;30.70;36.00;;;;;;934909;153;27634;-75
2023/05/13 10:19:11;;;;;;;1.55;1.45;;;30.50;36.10;;;;;;934466;153;27442;-75
2023/05/13 10:21:37;;;;;;;1.65;1.55;;;30.20;36.20;;;;;;934427;153;27427;-75
2023/05/13 10:24:04;;;;;;;1.50;1.40;;;30.00;36.20;;;;;;932964;150;27482;-75
2023/05/13 10:26:30;;;;;;;2.40;1.60;;;29.80;36.20;;;;;;935232;150;27353;-77
2023/05/13 10:28:57;;;;;;;2.40;1.67;;;29.50;36.40;;;;;;934544;153;27338;-77
2023/05/13 10:31:24;;;;;;;1.67;1.50;;;29.30;37.00;;;;;;934342;152;27666;-77
2023/05/13 10:33:50;;;;;;;1.50;1.40;;;29.20;37.60;;;;;;934846;153;27388;-78
2023/05/13 10:36:24;;;;;;;3.83;1.67;;;29.00;38.70;;;;;;934159;153;27453;-78
2023/05/13 10:39:20;;;;;;;1.98;1.80;;;29.00;38.40;;;;;;933958;151;27469;-77
2023/05/13 10:41:50;;;;;;;1.80;1.70;;;28.80;38.50;;;;;;930866;152;27411;-78
2023/05/13 10:44:16;;;;;;;1.87;1.77;;;28.70;38.70;;;;;;924887;151;27480;-77
2023/05/13 10:46:43;;;;;;;1.85;1.72;;;28.60;38.90;;;;;;926044;152;27925;-77
2023/05/13 10:49:10;;;;;;;1.82;1.72;;;28.40;39.00;;;;;;927570;152;27364;-78
2023/05/13 10:51:36;;;;;;;1.40;1.30;;;28.20;39.40;;;;;;926823;152;27288;-78
2023/05/13 10:54:03;;;;;;;2.00;1.60;;;27.90;39.60;;;;;;927529;150;27271;-78
2023/05/13 10:56:29;;;;;;;1.60;1.50;;;27.60;39.50;;;;;;925332;152;27463;-77
2023/05/13 10:59:04;;;;;;;2.02;1.57;;;27.40;39.80;;;;;;927272;152;27441;-77
2023/05/13 11:01:34;;;;;;;1.87;1.70;;;27.20;40.20;;;;;;926248;152;27307;-77
2023/05/13 11:04:00;;;;;;;1.75;1.65;;;27.10;40.30;;;;;;927120;152;27498;-77
2023/05/13 11:06:36;;;;;;;2.98;1.60;;;27.00;40.30;;;;;;927507;152;27380;-78
2023/05/13 11:09:08;;;;;;;2.30;1.70;;;27.00;40.40;;;;;;927413;152;27398;-77
2023/05/13 11:11:35;;;;;;;1.57;1.47;;;27.00;40.60;;;;;;927573;152;27374;-77
2023/05/13 11:14:16;;;;;;;1.92;1.72;;;27.00;40.40;;;;;;926902;152;27369;-77
2023/05/13 11:17:01;;;;;;;3.05;1.77;;;27.10;40.20;;;;;;927370;152;27488;-77
2023/05/13 11:19:30;;;;;;;4.12;1.90;;;27.10;40.00;;;;;;926035;152;27471;-77
2023/05/13 11:22:15;;;;;;;2.02;1.80;;;27.20;40.50;;;;;;927386;152;27366;-77
2023/05/13 11:24:41;;;;;;;1.82;1.60;;;27.30;40.10;;;;;;926615;152;27389;-77
2023/05/13 11:27:17;;;;;;;1.42;1.37;;;27.30;39.60;;;;;;927138;151;27393;-77
2023/05/13 11:29:49;;;;;;;2.65;1.62;;;27.40;39.30;;;;;;927471;152;27311;-77
2023/05/13 11:32:16;;;;;;;1.67;1.55;;;27.30;39.00;;;;;;927613;151;27381;-77
2023/05/13 11:34:42;;;;;;;1.45;1.32;;;27.30;39.00;;;;;;923192;152;27391;-77
2023/05/13 11:37:09;;;;;;;1.60;1.50;;;27.30;39.00;;;;;;925826;152;27368;-77
2023/05/13 11:39:35;;;;;;;1.90;1.77;;;27.30;39.20;;;;;;927489;152;27386;-77
2023/05/13 11:42:02;;;;;;;2.08;1.55;;;27.30;39.10;;;;;;927236;151;27445;-77
2023/05/13 11:44:29;;;;;;;1.72;1.60;;;27.30;38.80;;;;;;926329;152;27422;-77
2023/05/13 11:46:58;;;;;;;1.82;1.70;;;27.30;38.60;;;;;;927603;152;27432;-77
2023/05/13 11:49:39;;;;;;;1.80;1.70;;;27.40;38.80;;;;;;927203;152;27450;-77
2023/05/13 11:52:11;;;;;;;3.35;1.77;;;27.40;39.10;;;;;;927187;152;27362;-77
2023/05/13 11:54:47;;;;;;;1.77;1.65;;;27.40;39.00;;;;;;927020;151;27281;-77
2023/05/13 11:57:25;;;;;;;2.10;1.67;;;27.30;38.80;;;;;;927646;152;27441;-77
2023/05/13 12:00:00;;;;;;;1.70;1.60;;;27.30;39.00;;;;;;927264;152;27430;-77
2023/05/13 12:02:29;;;;;;;1.70;1.60;;;27.10;39.20;;;;;;926685;152;27497;-77
2023/05/13 12:04:56;;;;;;;2.25;2.05;;;27.00;39.50;;;;;;926163;152;27334;-77
2023/05/13 12:07:22;;;;;;;1.85;1.62;;;26.80;39.50;;;;;;926854;152;27421;-77
2023/05/13 12:09:49;;;;;;;1.82;1.60;;;26.70;39.80;;;;;;927979;152;27508;-77
2023/05/13 12:12:16;;;;;;;3.70;1.75;;;26.50;39.90;;;;;;928081;152;27463;-77
2023/05/13 12:14:42;;;;;;;1.70;1.60;;;26.40;39.90;;;;;;927515;151;27315;-77
2023/05/13 12:17:09;;;;;;;1.80;1.60;;;26.30;39.90;;;;;;927314;152;27339;-77
2023/05/13 12:19:36;;;;;;;1.70;1.60;;;26.10;39.90;;;;;;927723;152;27413;-77
2023/05/13 12:22:02;;;;;;;1.80;1.70;;;25.90;39.90;;;;;;927640;152;27340;-77
2023/05/13 12:24:30;;;;;;;2.27;2.08;;;25.70;40.30;;;;;;934096;150;27287;-78
2023/05/13 12:26:56;;;;;;;5.80;2.08;;;25.50;41.50;;;;;;912220;153;27410;-78
2023/05/13 12:29:23;;;;;;;2.58;1.82;;;25.20;42.70;;;;;;933885;149;27355;-78
2023/05/13 12:32:02;;;;;;;2.10;2.00;;;24.80;43.20;;;;;;934339;149;27440;-78
2023/05/13 12:34:31;;;;;;;2.15;2.00;;;24.30;43.70;;;;;;916164;153;27415;-77
2023/05/13 12:36:57;;;;;;;3.10;2.62;;;23.80;44.20;;;;;;926850;151;27803;-77
2023/05/13 12:39:24;;;;;;;2.62;1.87;;;23.20;44.60;;;;;;924973;151;27342;-77
2023/05/13 12:41:53;;;;;;;2.02;1.87;;;22.70;45.40;;;;;;912176;153;27330;-77
2023/05/13 12:44:20;;;;;;;2.62;1.92;;;22.30;46.00;;;;;;942809;148;27414;-76
2023/05/13 12:46:52;;;;;;;2.02;1.92;;;21.90;46.50;;;;;;922635;149;27353;-76
2023/05/13 12:49:19;;;;;;;4.92;2.12;;;21.50;47.30;;;;;;931569;151;27442;-77